KJHN

Stanton County Municipal Airport

Johnson, Kansas, USA
METAR KJHN 161035Z AUTO 21004KT 10SM CLR M04/M11 A2977 RMK AO2 T10401106
Observed Flight Rules
Dec-16 @ 10:35 UTC (23 minutes ago) Visual Flight Rules
Wind Visibility Clouds
210° at 4 knots 10 miles
  • Clear skies
Temperatures Readings
Current -4°C / 25°F
Dewpoint -11°C / 12°F
Humidity 59%
Altimeter 29.77" Hg
Pressure 1008 hPa
Elevation 1013
METAR KJHN 161035Z AUTO 21004KT 10SM CLR M04/M11 A2977 RMK AO2 T10401106
Observed Flight Rules
Dec-16 @ 10:35 UTC
(23 minutes ago)
VFR
Wind Visibility
210° at 4 knots 10 miles
Clouds
  • Clear skies
Temperature Dewpoint
-4°C / 25°F -11°C / 12°F
Humidity Altimeter Pressure
59% 29.77" Hg 1008 hPa